createdAt,value
2022-10-23T00:01:19.924Z,10.60
2022-10-23T00:03:47.757Z,10.57
2022-10-23T00:06:16.051Z,10.57
2022-10-23T00:08:43.801Z,10.56
2022-10-23T00:11:13.614Z,10.55
2022-10-23T00:13:41.016Z,10.52
2022-10-23T00:16:08.896Z,10.50
2022-10-23T00:18:37.540Z,10.50
2022-10-23T00:21:06.235Z,10.52
2022-10-23T00:23:33.118Z,10.54
2022-10-23T00:26:00.535Z,10.51
2022-10-23T00:28:27.446Z,10.48
2022-10-23T00:30:54.544Z,10.48
2022-10-23T00:33:21.544Z,10.49
2022-10-23T00:35:48.491Z,10.50
2022-10-23T00:38:15.523Z,10.50
2022-10-23T00:40:44.200Z,10.48
2022-10-23T00:43:19.777Z,10.45
2022-10-23T00:45:46.736Z,10.43
2022-10-23T00:48:14.356Z,10.39
2022-10-23T00:50:42.176Z,10.35
2022-10-23T00:53:12.519Z,10.36
2022-10-23T00:55:45.992Z,10.37
2022-10-23T00:58:14.735Z,10.35
2022-10-23T01:00:52.659Z,10.34
2022-10-23T01:03:23.482Z,10.39
2022-10-23T01:05:59.391Z,10.36
2022-10-23T01:08:35.749Z,10.39
2022-10-23T01:11:12.431Z,10.34
2022-10-23T01:13:56.979Z,10.34
2022-10-23T01:16:33.698Z,10.35
2022-10-23T01:19:22.640Z,10.33
2022-10-23T01:22:03.443Z,10.33
2022-10-23T01:24:56.800Z,10.32
2022-10-23T01:27:26.743Z,10.30
2022-10-23T01:29:59.697Z,10.30
2022-10-23T01:32:39.026Z,10.26
2022-10-23T01:35:13.402Z,10.28
2022-10-23T01:37:45.281Z,10.24
2022-10-23T01:40:33.720Z,10.26
2022-10-23T01:43:16.757Z,10.27
2022-10-23T01:46:05.565Z,10.26
2022-10-23T01:48:36.897Z,10.28
2022-10-23T01:51:08.340Z,10.24
2022-10-23T01:53:41.287Z,10.22
2022-10-23T01:56:15.418Z,10.23
2022-10-23T01:58:52.290Z,10.21
2022-10-23T02:01:24.670Z,10.19
2022-10-23T02:06:29.310Z,10.17
2022-10-23T02:08:56.782Z,10.20
2022-10-23T02:11:23.909Z,10.21
2022-10-23T02:13:56.407Z,10.22
2022-10-23T02:17:11.064Z,10.22
2022-10-23T02:20:00.828Z,10.26
2022-10-23T02:22:35.791Z,10.24
2022-10-23T02:25:18.423Z,10.24
2022-10-23T02:27:52.868Z,10.26
2022-10-23T02:30:23.295Z,10.29
2022-10-23T02:33:08.097Z,10.27
2022-10-23T02:35:35.672Z,10.28
2022-10-23T02:38:36.992Z,10.28
2022-10-23T02:41:16.127Z,10.32
2022-10-23T02:44:19.597Z,10.29
2022-10-23T02:46:55.758Z,10.29
2022-10-23T02:49:54.252Z,10.26
2022-10-23T02:52:23.909Z,10.27
2022-10-23T02:55:10.998Z,10.24
2022-10-23T02:58:08.848Z,10.27
2022-10-23T03:00:46.046Z,10.34
2022-10-23T03:03:22.413Z,10.35
2022-10-23T03:05:49.338Z,10.31
2022-10-23T03:08:16.190Z,10.31
2022-10-23T03:10:43.623Z,10.28
2022-10-23T03:13:13.127Z,10.30
2022-10-23T03:15:44.241Z,10.33
2022-10-23T03:18:14.984Z,10.31
2022-10-23T03:20:46.935Z,10.28
2022-10-23T03:23:14.840Z,10.29
2022-10-23T03:25:42.818Z,10.29
2022-10-23T03:28:11.219Z,10.32
2022-10-23T03:30:38.372Z,10.36
2022-10-23T03:33:05.461Z,10.38
2022-10-23T03:35:35.359Z,10.36
2022-10-23T03:38:02.617Z,10.34
2022-10-23T03:40:29.493Z,10.37
2022-10-23T03:42:56.696Z,10.40
2022-10-23T03:45:23.655Z,10.38
2022-10-23T03:47:51.774Z,10.37
2022-10-23T03:50:19.626Z,10.39
2022-10-23T03:52:46.599Z,10.42
2022-10-23T03:55:14.661Z,10.46
2022-10-23T03:57:41.639Z,10.48
2022-10-23T04:00:09.521Z,10.50
2022-10-23T04:02:47.894Z,10.48
2022-10-23T04:05:15.969Z,10.49
2022-10-23T04:07:52.202Z,10.49
2022-10-23T04:10:19.685Z,10.52
2022-10-23T04:12:46.542Z,10.54
2022-10-23T04:15:13.507Z,10.54
2022-10-23T04:17:43.304Z,10.57
2022-10-23T04:20:10.438Z,10.61
2022-10-23T04:22:37.763Z,10.68
2022-10-23T04:25:04.882Z,10.71
2022-10-23T04:27:34.478Z,10.74
2022-10-23T04:30:03.720Z,10.74
2022-10-23T04:32:31.441Z,10.70
2022-10-23T04:34:58.285Z,10.70
2022-10-23T04:37:25.763Z,10.67
2022-10-23T04:39:52.586Z,10.66
2022-10-23T04:42:19.598Z,10.64
2022-10-23T04:44:47.741Z,10.63
2022-10-23T04:47:14.618Z,10.59
2022-10-23T04:49:53.864Z,10.57
2022-10-23T04:52:35.474Z,10.58
2022-10-23T04:55:22.693Z,10.58
2022-10-23T04:58:12.549Z,10.55
2022-10-23T05:00:39.604Z,10.53
2022-10-23T05:03:06.863Z,10.52
2022-10-23T05:05:37.822Z,10.50
2022-10-23T05:08:18.179Z,10.48
2022-10-23T05:11:00.406Z,10.50
2022-10-23T05:13:27.650Z,10.51
2022-10-23T05:15:54.741Z,10.52
2022-10-23T05:18:30.367Z,10.51
2022-10-23T05:21:02.444Z,10.49
2022-10-23T05:23:33.795Z,10.50
2022-10-23T05:26:03.499Z,10.48
2022-10-23T05:28:32.277Z,10.45
2022-10-23T05:31:02.728Z,10.45
2022-10-23T05:33:31.201Z,10.39
2022-10-23T05:35:58.902Z,10.39
2022-10-23T05:38:28.322Z,10.38
2022-10-23T05:40:55.264Z,10.36
2022-10-23T05:43:23.265Z,10.36
2022-10-23T05:46:06.834Z,10.39
2022-10-23T05:48:56.542Z,10.40
2022-10-23T05:51:51.055Z,10.38
2022-10-23T05:54:24.827Z,10.40
2022-10-23T05:57:00.430Z,10.42
2022-10-23T05:59:43.053Z,10.40
2022-10-23T06:02:21.823Z,10.44
2022-10-23T06:04:53.866Z,10.47
2022-10-23T06:07:40.041Z,10.46
2022-10-23T06:10:08.256Z,10.50
2022-10-23T06:12:39.765Z,10.49
2022-10-23T06:15:07.310Z,10.52
2022-10-23T06:17:52.466Z,10.54
2022-10-23T06:20:19.860Z,10.53
2022-10-23T06:22:57.785Z,10.53
2022-10-23T06:25:51.054Z,10.54
2022-10-23T06:28:20.552Z,10.58
2022-10-23T06:30:48.542Z,10.58
2022-10-23T06:33:15.376Z,10.61
2022-10-23T06:35:43.090Z,10.65
2022-10-23T06:38:11.818Z,10.68
2022-10-23T06:40:53.158Z,10.73
2022-10-23T06:43:26.148Z,10.78
2022-10-23T06:46:16.178Z,10.80
2022-10-23T06:49:01.550Z,10.83
2022-10-23T06:51:32.687Z,10.84
2022-10-23T06:53:59.563Z,10.87
2022-10-23T06:56:46.835Z,10.87
2022-10-23T06:59:14.379Z,10.90
2022-10-23T07:01:41.346Z,10.93
2022-10-23T07:04:09.884Z,10.97
2022-10-23T07:06:37.499Z,11.00
2022-10-23T07:09:04.407Z,11.05
2022-10-23T07:11:50.082Z,11.11
2022-10-23T07:14:18.275Z,11.15
2022-10-23T07:16:45.108Z,11.20
2022-10-23T07:19:13.202Z,11.23
2022-10-23T07:21:54.262Z,11.30
2022-10-23T07:24:41.402Z,11.33
2022-10-23T07:27:19.939Z,11.40
2022-10-23T07:29:54.038Z,11.46
2022-10-23T07:32:20.949Z,11.49
2022-10-23T07:35:07.644Z,11.57
2022-10-23T07:37:35.502Z,11.60
2022-10-23T07:40:08.046Z,11.65
2022-10-23T07:42:41.665Z,11.72
2022-10-23T07:45:09.160Z,11.77
2022-10-23T07:47:39.818Z,11.81
2022-10-23T07:50:08.790Z,11.83
2022-10-23T07:52:36.563Z,11.87
2022-10-23T07:55:10.628Z,11.90
2022-10-23T07:57:42.902Z,11.96
2022-10-23T08:00:20.549Z,11.99
2022-10-23T08:02:56.670Z,12.03
2022-10-23T08:05:23.990Z,12.08
2022-10-23T08:07:57.276Z,12.14
2022-10-23T08:10:24.569Z,12.19
2022-10-23T08:12:51.442Z,12.25
2022-10-23T08:15:21.888Z,12.29
2022-10-23T08:17:54.557Z,12.32
2022-10-23T08:20:41.968Z,12.39
2022-10-23T08:23:10.124Z,12.46
2022-10-23T08:25:37.089Z,12.52
2022-10-23T08:28:06.197Z,12.56
2022-10-23T08:30:39.944Z,12.62
2022-10-23T08:33:07.831Z,12.72
2022-10-23T08:35:38.477Z,12.78
2022-10-23T08:38:07.782Z,12.90
2022-10-23T08:40:44.887Z,13.05
2022-10-23T08:43:32.565Z,13.19
2022-10-23T08:46:18.009Z,13.28
2022-10-23T08:49:35.440Z,13.35
2022-10-23T08:52:19.295Z,13.46
2022-10-23T08:55:24.138Z,13.57
2022-10-23T08:58:00.977Z,13.70
2022-10-23T09:00:28.535Z,13.76
2022-10-23T09:02:55.671Z,13.82
2022-10-23T09:05:31.952Z,13.87
2022-10-23T09:08:16.025Z,13.98
2022-10-23T09:10:50.611Z,14.07
2022-10-23T09:13:30.741Z,14.13
2022-10-23T09:16:10.765Z,14.14
2022-10-23T09:18:40.335Z,14.19
2022-10-23T09:21:10.633Z,14.23
2022-10-23T09:23:38.225Z,14.26
2022-10-23T09:26:14.372Z,14.31
2022-10-23T09:28:55.346Z,14.30
2022-10-23T09:31:22.360Z,14.33
2022-10-23T09:34:01.529Z,14.38
2022-10-23T09:36:29.772Z,14.47
2022-10-23T09:38:59.855Z,14.53
2022-10-23T09:41:32.226Z,14.61
2022-10-23T09:44:23.372Z,14.69
2022-10-23T09:46:59.282Z,14.76
2022-10-23T09:49:29.253Z,14.86
2022-10-23T09:52:02.813Z,14.82
2022-10-23T09:54:33.042Z,14.80
2022-10-23T09:57:15.538Z,14.77
2022-10-23T09:59:43.039Z,14.74
2022-10-23T10:02:28.182Z,14.81
2022-10-23T10:05:24.316Z,14.89
2022-10-23T10:08:05.480Z,14.96
2022-10-23T10:10:42.020Z,15.03
2022-10-23T10:13:38.352Z,15.05
2022-10-23T10:16:41.936Z,15.16
2022-10-23T10:19:34.246Z,15.32
2022-10-23T10:22:01.090Z,15.31
2022-10-23T10:24:46.856Z,15.34
2022-10-23T10:27:35.201Z,15.47
2022-10-23T10:30:19.461Z,15.57
2022-10-23T10:33:15.484Z,15.72
2022-10-23T10:36:07.045Z,15.84
2022-10-23T10:38:47.952Z,16.02
2022-10-23T10:41:27.459Z,16.05
2022-10-23T10:44:12.904Z,16.07
2022-10-23T10:46:48.759Z,16.08
2022-10-23T10:49:53.485Z,16.07
2022-10-23T10:52:45.424Z,16.10
2022-10-23T10:55:21.328Z,16.22
2022-10-23T10:57:59.891Z,16.36
2022-10-23T11:00:30.309Z,16.47
2022-10-23T11:03:21.604Z,16.53
2022-10-23T11:05:50.634Z,16.58
2022-10-23T11:08:49.861Z,16.66
2022-10-23T11:11:33.250Z,16.70
2022-10-23T11:14:00.520Z,16.70
2022-10-23T11:16:29.577Z,16.72
2022-10-23T11:19:28.670Z,16.76
2022-10-23T11:22:29.535Z,16.85
2022-10-23T11:25:33.782Z,16.92
2022-10-23T11:28:25.423Z,16.98
2022-10-23T11:31:10.831Z,17.05
2022-10-23T11:34:09.008Z,17.12
2022-10-23T11:36:54.418Z,17.16
2022-10-23T11:39:35.921Z,17.12
2022-10-23T11:42:08.626Z,17.10
2022-10-23T11:44:42.743Z,17.12
2022-10-23T11:47:39.569Z,17.09
2022-10-23T11:50:07.086Z,17.07
2022-10-23T11:53:13.717Z,17.12
2022-10-23T11:56:19.449Z,17.15
2022-10-23T11:58:59.364Z,17.15
2022-10-23T12:01:30.837Z,17.07
2022-10-23T12:04:06.926Z,16.97
2022-10-23T12:06:40.511Z,16.93
2022-10-23T12:09:23.288Z,16.86
2022-10-23T12:12:07.614Z,16.90
2022-10-23T12:14:40.905Z,16.99
2022-10-23T12:17:24.164Z,17.00
2022-10-23T12:20:27.343Z,16.92
2022-10-23T12:23:03.729Z,16.87
2022-10-23T12:25:45.810Z,16.79
2022-10-23T12:28:37.225Z,16.66
2022-10-23T12:31:28.633Z,16.52
2022-10-23T12:33:58.244Z,16.39
2022-10-23T12:36:25.111Z,16.36
2022-10-23T12:38:52.135Z,16.37
2022-10-23T12:41:27.752Z,16.50
2022-10-23T12:44:04.469Z,16.59
2022-10-23T12:46:35.528Z,16.61
2022-10-23T12:49:14.463Z,16.57
2022-10-23T12:51:41.384Z,16.58
2022-10-23T12:54:20.396Z,16.56
2022-10-23T12:56:48.188Z,16.58
2022-10-23T12:59:18.606Z,16.59
2022-10-23T13:01:49.128Z,16.60
2022-10-23T13:04:34.640Z,16.52
2022-10-23T13:07:04.172Z,16.48
2022-10-23T13:09:41.970Z,16.39
2022-10-23T13:12:28.081Z,16.33
2022-10-23T13:14:58.848Z,16.28
2022-10-23T13:17:58.313Z,16.16
2022-10-23T13:20:27.026Z,16.07
2022-10-23T13:23:21.304Z,16.01
2022-10-23T13:25:56.057Z,15.95
2022-10-23T13:28:35.416Z,15.90
2022-10-23T13:31:12.437Z,15.89
2022-10-23T13:33:43.527Z,15.87
2022-10-23T13:36:13.604Z,15.88
2022-10-23T13:38:42.813Z,15.86
2022-10-23T13:41:16.539Z,15.92
2022-10-23T13:43:45.449Z,15.97
2022-10-23T13:46:17.406Z,16.03
2022-10-23T13:48:45.886Z,16.07
2022-10-23T13:51:24.125Z,16.12
2022-10-23T13:53:52.917Z,16.14
2022-10-23T13:56:21.466Z,16.15
2022-10-23T13:58:49.149Z,16.14
2022-10-23T14:01:23.561Z,16.15
2022-10-23T14:03:51.653Z,16.16
2022-10-23T14:06:18.931Z,16.15
2022-10-23T14:08:46.454Z,16.13
2022-10-23T14:13:47.759Z,16.16
2022-10-23T14:16:17.299Z,16.15
2022-10-23T14:18:44.790Z,16.11
2022-10-23T14:21:14.225Z,16.10
2022-10-23T14:23:41.747Z,16.10
2022-10-23T14:26:11.631Z,16.11
2022-10-23T14:28:39.260Z,16.09
2022-10-23T14:31:09.352Z,16.09
2022-10-23T14:33:36.664Z,16.12
2022-10-23T14:36:04.099Z,16.11
2022-10-23T14:38:31.078Z,16.14
2022-10-23T14:40:58.035Z,16.13
2022-10-23T14:43:25.467Z,16.12
2022-10-23T14:45:52.445Z,16.09
2022-10-23T14:48:19.650Z,16.11
2022-10-23T14:50:49.398Z,16.11
2022-10-23T14:53:16.424Z,16.12
2022-10-23T14:55:43.372Z,16.16
2022-10-23T14:58:10.469Z,16.23
2022-10-23T15:00:37.322Z,16.25
2022-10-23T15:03:04.342Z,16.30
2022-10-23T15:05:31.286Z,16.31
2022-10-23T15:07:59.057Z,16.34
2022-10-23T15:10:25.900Z,16.33
2022-10-23T15:12:52.829Z,16.34
2022-10-23T15:15:19.670Z,16.33
2022-10-23T15:17:46.474Z,16.35
2022-10-23T15:20:13.500Z,16.39
2022-10-23T15:22:40.431Z,16.43
2022-10-23T15:25:07.965Z,16.41
2022-10-23T15:27:35.559Z,16.39
2022-10-23T15:30:02.614Z,16.37
2022-10-23T15:32:29.862Z,16.34
2022-10-23T15:34:58.430Z,16.26
2022-10-23T15:37:25.497Z,16.19
2022-10-23T15:39:52.951Z,16.14
2022-10-23T15:42:20.059Z,16.08
2022-10-23T15:44:47.155Z,16.06
2022-10-23T15:47:14.327Z,15.99
2022-10-23T15:49:41.383Z,15.93
2022-10-23T15:54:37.434Z,15.80
2022-10-23T15:57:04.863Z,15.73
2022-10-23T15:59:32.578Z,15.67
2022-10-23T16:01:59.681Z,15.62
2022-10-23T16:04:28.628Z,15.55
2022-10-23T16:06:55.693Z,15.47
2022-10-23T16:09:22.869Z,15.40
2022-10-23T16:11:49.891Z,15.34
2022-10-23T16:14:17.597Z,15.24
2022-10-23T16:16:45.084Z,15.20
2022-10-23T16:19:12.786Z,15.17
2022-10-23T16:21:40.222Z,15.15
2022-10-23T16:24:08.835Z,15.12
2022-10-23T16:26:36.891Z,15.13
2022-10-23T16:29:06.485Z,15.12
2022-10-23T16:31:34.178Z,15.13
2022-10-23T16:34:02.590Z,15.14
2022-10-23T16:36:29.773Z,15.12
2022-10-23T16:39:22.268Z,15.09
2022-10-23T16:42:09.642Z,15.05
2022-10-23T16:45:01.328Z,15.01
2022-10-23T16:47:31.357Z,15.02
2022-10-23T16:49:58.212Z,14.98
2022-10-23T16:52:26.689Z,14.95
2022-10-23T16:54:53.892Z,14.93
2022-10-23T16:57:20.762Z,14.95
2022-10-23T16:59:47.843Z,14.94
2022-10-23T17:02:14.983Z,14.90
2022-10-23T17:04:41.958Z,14.93
2022-10-23T17:07:09.288Z,14.93
2022-10-23T17:09:36.786Z,14.96
2022-10-23T17:12:04.245Z,14.97
2022-10-23T17:14:31.784Z,14.96
2022-10-23T17:17:05.754Z,14.91
2022-10-23T17:19:44.696Z,14.86
2022-10-23T17:22:13.408Z,14.84
2022-10-23T17:24:42.016Z,14.83
2022-10-23T17:27:09.404Z,14.82
2022-10-23T17:29:36.833Z,14.81
2022-10-23T17:32:04.292Z,14.81
2022-10-23T17:34:31.144Z,14.80
2022-10-23T17:36:58.228Z,14.80
2022-10-23T17:39:28.660Z,14.79
2022-10-23T17:41:56.463Z,14.81
2022-10-23T17:44:23.971Z,14.87
2022-10-23T17:46:54.814Z,14.86
2022-10-23T17:49:22.813Z,14.85
2022-10-23T17:51:55.039Z,14.84
2022-10-23T17:54:23.158Z,14.86
2022-10-23T17:56:50.017Z,14.89
2022-10-23T17:59:20.810Z,14.93
2022-10-23T18:01:48.876Z,14.97
2022-10-23T18:04:19.135Z,14.98
2022-10-23T18:06:49.604Z,14.97
2022-10-23T18:09:17.189Z,14.94
2022-10-23T18:11:48.020Z,14.92
2022-10-23T18:14:16.744Z,14.92
2022-10-23T18:16:45.762Z,14.87
2022-10-23T18:19:13.600Z,14.88
2022-10-23T18:21:44.593Z,14.91
2022-10-23T18:24:11.895Z,14.91
2022-10-23T18:26:41.073Z,14.90
2022-10-23T18:29:10.423Z,14.90
2022-10-23T18:31:38.087Z,14.83
2022-10-23T18:34:11.774Z,14.80
2022-10-23T18:36:40.665Z,14.74
2022-10-23T18:39:11.441Z,14.67
2022-10-23T18:41:41.879Z,14.63
2022-10-23T18:44:10.332Z,14.58
2022-10-23T18:46:37.631Z,14.59
2022-10-23T18:49:05.417Z,14.60
2022-10-23T18:51:35.630Z,14.60
2022-10-23T18:54:06.592Z,14.61
2022-10-23T18:56:35.932Z,14.63
2022-10-23T18:59:05.809Z,14.64
2022-10-23T19:01:33.178Z,14.64
2022-10-23T19:04:01.659Z,14.65
2022-10-23T19:06:31.356Z,14.70
2022-10-23T19:08:59.258Z,14.73
2022-10-23T19:11:28.668Z,14.80
2022-10-23T19:13:55.952Z,14.83
2022-10-23T19:16:41.687Z,14.89
2022-10-23T19:19:20.013Z,14.95
2022-10-23T19:21:48.821Z,14.99
2022-10-23T19:24:21.730Z,15.03
2022-10-23T19:26:50.151Z,15.05
2022-10-23T19:29:20.504Z,15.09
2022-10-23T19:31:51.936Z,15.11
2022-10-23T19:34:24.851Z,15.22
2022-10-23T19:36:55.335Z,15.22
2022-10-23T19:39:23.059Z,15.26
2022-10-23T19:41:51.722Z,15.31
2022-10-23T19:44:19.465Z,15.34
2022-10-23T19:46:47.150Z,15.36
2022-10-23T19:49:14.441Z,15.45
2022-10-23T19:51:50.619Z,15.51
2022-10-23T19:54:19.521Z,15.54
2022-10-23T19:56:47.107Z,15.57
2022-10-23T19:59:14.617Z,15.69
2022-10-23T20:01:45.056Z,15.81
2022-10-23T20:04:17.629Z,15.92
2022-10-23T20:06:45.029Z,15.97
2022-10-23T20:09:12.590Z,16.02
2022-10-23T20:11:40.199Z,16.07
2022-10-23T20:14:07.405Z,16.06
2022-10-23T20:16:37.330Z,16.11
2022-10-23T20:19:07.166Z,16.15
2022-10-23T20:21:41.189Z,16.19
2022-10-23T20:24:09.359Z,16.20
2022-10-23T20:26:40.162Z,16.26
2022-10-23T20:29:07.179Z,16.23
2022-10-23T20:31:36.852Z,16.14
2022-10-23T20:34:03.691Z,16.08
2022-10-23T20:36:33.444Z,16.01
2022-10-23T20:39:04.997Z,15.94
2022-10-23T20:41:33.900Z,15.76
2022-10-23T20:44:00.977Z,15.56
2022-10-23T20:46:28.004Z,15.48
2022-10-23T20:48:54.988Z,15.34
2022-10-23T20:51:23.901Z,15.22
2022-10-23T20:53:51.943Z,15.19
2022-10-23T20:56:31.351Z,15.19
2022-10-23T20:59:18.816Z,15.13
2022-10-23T21:01:50.155Z,15.10
2022-10-23T21:04:20.504Z,15.06
2022-10-23T21:07:08.739Z,15.05
2022-10-23T21:09:38.198Z,15.00
2022-10-23T21:12:06.944Z,14.98
2022-10-23T21:14:34.525Z,14.98
2022-10-23T21:17:01.583Z,14.97
2022-10-23T21:19:28.510Z,14.95
2022-10-23T21:21:55.533Z,14.92
2022-10-23T21:24:22.727Z,14.86
2022-10-23T21:26:49.613Z,14.78
2022-10-23T21:29:19.139Z,14.75
2022-10-23T21:31:52.319Z,14.65
2022-10-23T21:34:19.096Z,14.57
2022-10-23T21:37:10.912Z,14.49
2022-10-23T21:39:34.479Z,14.42
2022-10-23T21:42:01.300Z,14.38
2022-10-23T21:44:28.218Z,14.31
2022-10-23T21:46:55.758Z,14.22
2022-10-23T21:49:22.697Z,14.16
2022-10-23T21:51:49.485Z,14.15
2022-10-23T21:54:16.573Z,14.12
2022-10-23T21:56:51.636Z,14.10
2022-10-23T21:59:21.254Z,14.11
2022-10-23T22:01:49.335Z,14.11
2022-10-23T22:04:18.073Z,14.09
2022-10-23T22:06:46.910Z,14.05
2022-10-23T22:09:17.406Z,14.04
2022-10-23T22:11:44.463Z,13.98
2022-10-23T22:14:11.711Z,13.96
2022-10-23T22:16:38.574Z,13.95
2022-10-23T22:19:25.597Z,13.91
2022-10-23T22:22:12.389Z,13.87
2022-10-23T22:24:39.472Z,13.80
2022-10-23T22:27:06.671Z,13.80
2022-10-23T22:29:33.693Z,13.74
2022-10-23T22:32:00.708Z,13.72
2022-10-23T22:37:17.226Z,13.68
2022-10-23T22:39:45.423Z,13.69
2022-10-23T22:42:12.230Z,13.70
2022-10-23T22:44:39.049Z,13.70
2022-10-23T22:47:06.649Z,13.74
2022-10-23T22:49:33.496Z,13.76
2022-10-23T22:52:00.428Z,13.76
2022-10-23T22:54:27.269Z,13.75
2022-10-23T22:56:54.219Z,13.77
2022-10-23T22:59:21.083Z,13.78
2022-10-23T23:01:48.508Z,13.79
2022-10-23T23:07:06.949Z,13.79
2022-10-23T23:09:36.902Z,13.75
2022-10-23T23:12:03.975Z,13.74
2022-10-23T23:14:30.965Z,13.74
2022-10-23T23:16:57.989Z,13.72
2022-10-23T23:19:26.598Z,13.72
2022-10-23T23:22:00.187Z,13.70
2022-10-23T23:24:27.290Z,13.70
2022-10-23T23:26:54.087Z,13.72
2022-10-23T23:29:20.898Z,13.73
2022-10-23T23:31:47.869Z,13.73
2022-10-23T23:34:14.695Z,13.75
2022-10-23T23:36:41.664Z,13.72
2022-10-23T23:39:08.602Z,13.71
2022-10-23T23:41:35.664Z,13.72
2022-10-23T23:44:02.689Z,13.69
2022-10-23T23:46:29.540Z,13.69
2022-10-23T23:48:56.367Z,13.67
2022-10-23T23:51:25.086Z,13.68
2022-10-23T23:53:53.167Z,13.67
2022-10-23T23:56:20.857Z,13.68
2022-10-23T23:58:48.074Z,13.69
